CheckWX is a tool to help pilots better visualize weather data.  It is not intended as a substitute for an official pre-flight weather briefing.

04:48:06 UTC

SLSA METAR
Santa Ana Del Yacuma Airport
Santa Ana del Yacuma, Bolivia
Current

7 hours ago

SLSA 172200Z 33006KT 5000 FU NSC 32/17 Q1010
Observed
Aug-17 @ 22:00 UTC
Wind
  • 330° at 6 KTS
Visibility
5,000 meters
Flight Rules
MVFR
Conditions
Smoke
Cloud Levels
  • Clear skies
Temperature
32°C / 90°F
Dewpoint
17°C / 63°F
Heat Index
33°C / 91°F
Humidity
41%
Altimeter
29.82" Hg
Pressure
1009.92 hPa
Previous

8 hours ago

SLSA 172100Z 33008KT 5000 FU NSC 34/17 Q1010
Observed
Aug-17 @ 21:00 UTC
Wind
  • 330° at 8 KTS
Visibility
5,000 meters
Flight Rules
MVFR
Conditions
Smoke
Cloud Levels
  • Clear skies
Temperature
34°C / 93°F
Dewpoint
17°C / 63°F
Humidity
36%
Altimeter
29.82" Hg
Pressure
1009.92 hPa
Previous

9 hours ago

SLSA 172000Z 33010KT 5000 FU SCT020 35/17 Q1010
Observed
Aug-17 @ 20:00 UTC
Wind
  • 330° at 10 KTS
Visibility
5,000 meters
Flight Rules
MVFR
Conditions
Smoke
Cloud Levels
  • Scattered at 2,000' AGL
Temperature
35°C / 95°F
Dewpoint
17°C / 63°F
Humidity
34%
Altimeter
29.82" Hg
Pressure
1009.92 hPa